sensor_id;sensor_type;location;lat;lon;timestamp;P1;durP1;ratioP1;P2;durP2;ratioP2
37905;SDS011;23739;51.448;6.674;2023-05-03T00:00:46;2.70;;;2.00;;
37905;SDS011;23739;51.448;6.674;2023-05-03T00:03:12;5.57;;;2.53;;
37905;SDS011;23739;51.448;6.674;2023-05-03T00:05:38;2.88;;;2.35;;
37905;SDS011;23739;51.448;6.674;2023-05-03T00:08:04;4.93;;;2.58;;
37905;SDS011;23739;51.448;6.674;2023-05-03T00:10:31;4.43;;;2.35;;
37905;SDS011;23739;51.448;6.674;2023-05-03T00:12:57;7.10;;;2.55;;
37905;SDS011;23739;51.448;6.674;2023-05-03T00:15:23;4.25;;;2.65;;
37905;SDS011;23739;51.448;6.674;2023-05-03T00:17:49;3.90;;;2.17;;
37905;SDS011;23739;51.448;6.674;2023-05-03T00:20:15;6.03;;;2.60;;
37905;SDS011;23739;51.448;6.674;2023-05-03T00:22:43;3.85;;;2.47;;
37905;SDS011;23739;51.448;6.674;2023-05-03T00:25:09;5.05;;;3.03;;
37905;SDS011;23739;51.448;6.674;2023-05-03T00:27:35;5.32;;;2.80;;
37905;SDS011;23739;51.448;6.674;2023-05-03T00:30:02;3.90;;;2.60;;
37905;SDS011;23739;51.448;6.674;2023-05-03T00:32:28;6.15;;;2.70;;
37905;SDS011;23739;51.448;6.674;2023-05-03T00:34:54;7.32;;;3.13;;
37905;SDS011;23739;51.448;6.674;2023-05-03T00:37:21;8.68;;;3.38;;
37905;SDS011;23739;51.448;6.674;2023-05-03T00:39:47;3.92;;;2.70;;
37905;SDS011;23739;51.448;6.674;2023-05-03T00:42:13;6.28;;;2.53;;
37905;SDS011;23739;51.448;6.674;2023-05-03T00:44:39;6.82;;;2.88;;
37905;SDS011;23739;51.448;6.674;2023-05-03T00:47:06;3.25;;;2.13;;
37905;SDS011;23739;51.448;6.674;2023-05-03T00:49:32;4.28;;;2.35;;
37905;SDS011;23739;51.448;6.674;2023-05-03T00:51:58;5.50;;;3.38;;
37905;SDS011;23739;51.448;6.674;2023-05-03T00:54:28;5.47;;;2.72;;
37905;SDS011;23739;51.448;6.674;2023-05-03T00:56:55;3.47;;;2.85;;
37905;SDS011;23739;51.448;6.674;2023-05-03T00:59:21;5.65;;;3.10;;
37905;SDS011;23739;51.448;6.674;2023-05-03T01:01:48;8.70;;;3.25;;
37905;SDS011;23739;51.448;6.674;2023-05-03T01:04:15;7.22;;;2.97;;
37905;SDS011;23739;51.448;6.674;2023-05-03T01:16:51;9.18;;;2.97;;
37905;SDS011;23739;51.448;6.674;2023-05-03T01:19:27;6.72;;;2.75;;
37905;SDS011;23739;51.448;6.674;2023-05-03T01:24:35;3.92;;;3.20;;
37905;SDS011;23739;51.448;6.674;2023-05-03T01:27:03;4.28;;;2.60;;
37905;SDS011;23739;51.448;6.674;2023-05-03T01:29:29;9.07;;;2.55;;
37905;SDS011;23739;51.448;6.674;2023-05-03T01:32:01;8.38;;;3.17;;
37905;SDS011;23739;51.448;6.674;2023-05-03T01:37:13;7.72;;;3.17;;
37905;SDS011;23739;51.448;6.674;2023-05-03T01:42:14;6.22;;;3.70;;
37905;SDS011;23739;51.448;6.674;2023-05-03T01:44:40;8.52;;;3.55;;
37905;SDS011;23739;51.448;6.674;2023-05-03T01:47:07;7.68;;;3.35;;
37905;SDS011;23739;51.448;6.674;2023-05-03T01:49:34;10.00;;;3.10;;
37905;SDS011;23739;51.448;6.674;2023-05-03T01:52:00;5.47;;;2.83;;
37905;SDS011;23739;51.448;6.674;2023-05-03T01:54:26;4.63;;;2.70;;
37905;SDS011;23739;51.448;6.674;2023-05-03T01:56:52;5.65;;;2.95;;
37905;SDS011;23739;51.448;6.674;2023-05-03T01:59:18;3.40;;;2.63;;
37905;SDS011;23739;51.448;6.674;2023-05-03T02:01:44;4.32;;;2.90;;
37905;SDS011;23739;51.448;6.674;2023-05-03T02:04:10;5.88;;;3.45;;
37905;SDS011;23739;51.448;6.674;2023-05-03T02:06:37;5.32;;;2.85;;
37905;SDS011;23739;51.448;6.674;2023-05-03T02:09:03;7.00;;;3.42;;
37905;SDS011;23739;51.448;6.674;2023-05-03T02:11:29;5.30;;;3.53;;
37905;SDS011;23739;51.448;6.674;2023-05-03T02:13:55;3.42;;;2.85;;
37905;SDS011;23739;51.448;6.674;2023-05-03T02:16:21;10.27;;;3.83;;
37905;SDS011;23739;51.448;6.674;2023-05-03T02:18:47;4.65;;;3.20;;
37905;SDS011;23739;51.448;6.674;2023-05-03T02:21:13;6.35;;;4.03;;
37905;SDS011;23739;51.448;6.674;2023-05-03T02:23:40;5.20;;;3.53;;
37905;SDS011;23739;51.448;6.674;2023-05-03T02:26:06;4.05;;;2.97;;
37905;SDS011;23739;51.448;6.674;2023-05-03T02:28:32;6.72;;;3.15;;
37905;SDS011;23739;51.448;6.674;2023-05-03T02:30:58;6.70;;;3.20;;
37905;SDS011;23739;51.448;6.674;2023-05-03T02:33:24;4.65;;;3.10;;
37905;SDS011;23739;51.448;6.674;2023-05-03T02:35:51;4.35;;;3.15;;
37905;SDS011;23739;51.448;6.674;2023-05-03T02:38:17;5.80;;;3.20;;
37905;SDS011;23739;51.448;6.674;2023-05-03T02:40:43;5.90;;;3.03;;
37905;SDS011;23739;51.448;6.674;2023-05-03T02:43:09;6.63;;;3.50;;
37905;SDS011;23739;51.448;6.674;2023-05-03T02:45:35;3.17;;;2.25;;
37905;SDS011;23739;51.448;6.674;2023-05-03T02:48:01;5.20;;;2.97;;
37905;SDS011;23739;51.448;6.674;2023-05-03T02:50:27;6.30;;;3.50;;
37905;SDS011;23739;51.448;6.674;2023-05-03T02:52:53;6.88;;;3.53;;
37905;SDS011;23739;51.448;6.674;2023-05-03T02:55:19;5.93;;;3.80;;
37905;SDS011;23739;51.448;6.674;2023-05-03T02:57:46;7.63;;;3.17;;
37905;SDS011;23739;51.448;6.674;2023-05-03T03:00:13;4.18;;;2.92;;
37905;SDS011;23739;51.448;6.674;2023-05-03T03:02:39;7.30;;;4.03;;
37905;SDS011;23739;51.448;6.674;2023-05-03T03:05:05;6.25;;;3.63;;
37905;SDS011;23739;51.448;6.674;2023-05-03T03:07:33;5.20;;;3.30;;
37905;SDS011;23739;51.448;6.674;2023-05-03T03:09:59;4.30;;;2.80;;
37905;SDS011;23739;51.448;6.674;2023-05-03T03:12:25;4.47;;;3.85;;
37905;SDS011;23739;51.448;6.674;2023-05-03T03:14:53;5.60;;;3.58;;
37905;SDS011;23739;51.448;6.674;2023-05-03T03:17:19;6.93;;;3.30;;
37905;SDS011;23739;51.448;6.674;2023-05-03T03:19:45;5.43;;;3.20;;
37905;SDS011;23739;51.448;6.674;2023-05-03T03:22:11;7.03;;;3.50;;
37905;SDS011;23739;51.448;6.674;2023-05-03T03:24:37;8.07;;;3.50;;
37905;SDS011;23739;51.448;6.674;2023-05-03T03:27:03;7.07;;;3.50;;
37905;SDS011;23739;51.448;6.674;2023-05-03T03:29:30;6.78;;;3.30;;
37905;SDS011;23739;51.448;6.674;2023-05-03T03:31:57;4.75;;;2.90;;
37905;SDS011;23739;51.448;6.674;2023-05-03T03:34:23;7.07;;;3.58;;
37905;SDS011;23739;51.448;6.674;2023-05-03T03:36:49;5.50;;;3.55;;
37905;SDS011;23739;51.448;6.674;2023-05-03T03:39:15;7.35;;;3.47;;
37905;SDS011;23739;51.448;6.674;2023-05-03T03:41:42;5.90;;;3.40;;
37905;SDS011;23739;51.448;6.674;2023-05-03T03:44:08;7.45;;;3.00;;
37905;SDS011;23739;51.448;6.674;2023-05-03T03:46:34;6.47;;;3.60;;
37905;SDS011;23739;51.448;6.674;2023-05-03T03:49:00;8.32;;;3.80;;
37905;SDS011;23739;51.448;6.674;2023-05-03T03:51:26;6.30;;;2.92;;
37905;SDS011;23739;51.448;6.674;2023-05-03T03:53:53;8.05;;;3.67;;
37905;SDS011;23739;51.448;6.674;2023-05-03T03:56:19;6.30;;;3.45;;
37905;SDS011;23739;51.448;6.674;2023-05-03T03:58:46;5.15;;;3.20;;
37905;SDS011;23739;51.448;6.674;2023-05-03T04:01:12;6.90;;;3.40;;
37905;SDS011;23739;51.448;6.674;2023-05-03T04:03:38;10.38;;;3.95;;
37905;SDS011;23739;51.448;6.674;2023-05-03T04:06:04;4.60;;;3.22;;
37905;SDS011;23739;51.448;6.674;2023-05-03T04:08:30;7.93;;;3.75;;
37905;SDS011;23739;51.448;6.674;2023-05-03T04:10:57;7.82;;;3.67;;
37905;SDS011;23739;51.448;6.674;2023-05-03T04:13:23;9.52;;;4.57;;
37905;SDS011;23739;51.448;6.674;2023-05-03T04:15:52;9.35;;;4.78;;
37905;SDS011;23739;51.448;6.674;2023-05-03T04:18:19;10.52;;;4.97;;
37905;SDS011;23739;51.448;6.674;2023-05-03T04:20:46;7.53;;;4.82;;
37905;SDS011;23739;51.448;6.674;2023-05-03T04:23:12;8.65;;;4.38;;
37905;SDS011;23739;51.448;6.674;2023-05-03T04:25:38;9.20;;;4.38;;
37905;SDS011;23739;51.448;6.674;2023-05-03T04:30:37;10.55;;;4.68;;
37905;SDS011;23739;51.448;6.674;2023-05-03T04:33:03;7.22;;;4.28;;
37905;SDS011;23739;51.448;6.674;2023-05-03T04:35:29;7.15;;;4.40;;
37905;SDS011;23739;51.448;6.674;2023-05-03T04:37:55;7.50;;;4.35;;
37905;SDS011;23739;51.448;6.674;2023-05-03T04:40:21;10.98;;;4.63;;
37905;SDS011;23739;51.448;6.674;2023-05-03T04:42:48;8.57;;;4.50;;
37905;SDS011;23739;51.448;6.674;2023-05-03T04:45:14;10.68;;;5.13;;
37905;SDS011;23739;51.448;6.674;2023-05-03T04:47:40;7.95;;;5.32;;
37905;SDS011;23739;51.448;6.674;2023-05-03T04:50:07;12.35;;;5.72;;
37905;SDS011;23739;51.448;6.674;2023-05-03T04:52:35;12.48;;;5.03;;
37905;SDS011;23739;51.448;6.674;2023-05-03T04:55:01;10.07;;;5.72;;
37905;SDS011;23739;51.448;6.674;2023-05-03T04:57:27;14.10;;;5.38;;
37905;SDS011;23739;51.448;6.674;2023-05-03T04:59:54;11.00;;;5.07;;
37905;SDS011;23739;51.448;6.674;2023-05-03T05:02:20;12.57;;;5.18;;
37905;SDS011;23739;51.448;6.674;2023-05-03T05:04:47;8.80;;;5.32;;
37905;SDS011;23739;51.448;6.674;2023-05-03T05:07:13;9.20;;;5.32;;
37905;SDS011;23739;51.448;6.674;2023-05-03T05:09:39;9.38;;;5.78;;
37905;SDS011;23739;51.448;6.674;2023-05-03T05:12:05;9.07;;;5.35;;
37905;SDS011;23739;51.448;6.674;2023-05-03T05:14:32;17.77;;;5.80;;
37905;SDS011;23739;51.448;6.674;2023-05-03T05:16:58;15.75;;;6.47;;
37905;SDS011;23739;51.448;6.674;2023-05-03T05:19:24;7.28;;;4.93;;
37905;SDS011;23739;51.448;6.674;2023-05-03T05:21:53;10.75;;;5.55;;
37905;SDS011;23739;51.448;6.674;2023-05-03T05:24:19;12.07;;;5.65;;
37905;SDS011;23739;51.448;6.674;2023-05-03T05:26:45;11.30;;;5.82;;
37905;SDS011;23739;51.448;6.674;2023-05-03T05:29:11;7.28;;;5.20;;
37905;SDS011;23739;51.448;6.674;2023-05-03T05:31:37;8.68;;;5.82;;
37905;SDS011;23739;51.448;6.674;2023-05-03T05:34:03;7.95;;;4.60;;
37905;SDS011;23739;51.448;6.674;2023-05-03T05:36:29;12.68;;;6.80;;
37905;SDS011;23739;51.448;6.674;2023-05-03T05:38:56;14.52;;;6.82;;
37905;SDS011;23739;51.448;6.674;2023-05-03T05:41:22;18.25;;;6.28;;
37905;SDS011;23739;51.448;6.674;2023-05-03T05:43:48;11.98;;;6.38;;
37905;SDS011;23739;51.448;6.674;2023-05-03T05:46:14;7.78;;;5.22;;
37905;SDS011;23739;51.448;6.674;2023-05-03T05:48:41;8.60;;;5.32;;
37905;SDS011;23739;51.448;6.674;2023-05-03T05:51:07;15.88;;;6.10;;
37905;SDS011;23739;51.448;6.674;2023-05-03T05:53:33;12.10;;;5.80;;
37905;SDS011;23739;51.448;6.674;2023-05-03T05:55:59;13.98;;;6.18;;
37905;SDS011;23739;51.448;6.674;2023-05-03T05:58:25;15.80;;;6.45;;
37905;SDS011;23739;51.448;6.674;2023-05-03T06:00:51;9.30;;;5.28;;
37905;SDS011;23739;51.448;6.674;2023-05-03T06:03:19;10.43;;;4.70;;
37905;SDS011;23739;51.448;6.674;2023-05-03T06:05:45;10.25;;;5.70;;
37905;SDS011;23739;51.448;6.674;2023-05-03T06:08:12;22.85;;;8.75;;
37905;SDS011;23739;51.448;6.674;2023-05-03T06:10:38;17.83;;;7.30;;
37905;SDS011;23739;51.448;6.674;2023-05-03T06:13:05;12.85;;;6.82;;
37905;SDS011;23739;51.448;6.674;2023-05-03T06:15:39;13.73;;;6.82;;
37905;SDS011;23739;51.448;6.674;2023-05-03T06:18:05;9.57;;;6.50;;
37905;SDS011;23739;51.448;6.674;2023-05-03T06:20:31;14.20;;;7.00;;
37905;SDS011;23739;51.448;6.674;2023-05-03T06:22:57;10.85;;;5.68;;
37905;SDS011;23739;51.448;6.674;2023-05-03T06:25:24;9.85;;;6.53;;
37905;SDS011;23739;51.448;6.674;2023-05-03T06:27:50;8.90;;;5.95;;
37905;SDS011;23739;51.448;6.674;2023-05-03T06:30:16;12.82;;;5.47;;
37905;SDS011;23739;51.448;6.674;2023-05-03T06:32:42;9.70;;;4.97;;
37905;SDS011;23739;51.448;6.674;2023-05-03T06:35:08;12.75;;;5.55;;
37905;SDS011;23739;51.448;6.674;2023-05-03T06:37:35;7.70;;;5.35;;
37905;SDS011;23739;51.448;6.674;2023-05-03T06:40:01;8.80;;;5.05;;
37905;SDS011;23739;51.448;6.674;2023-05-03T06:42:27;7.72;;;5.20;;
37905;SDS011;23739;51.448;6.674;2023-05-03T06:44:53;11.38;;;5.32;;
37905;SDS011;23739;51.448;6.674;2023-05-03T06:47:19;5.78;;;5.15;;
37905;SDS011;23739;51.448;6.674;2023-05-03T06:49:45;11.48;;;4.93;;
37905;SDS011;23739;51.448;6.674;2023-05-03T06:52:11;8.93;;;5.65;;
37905;SDS011;23739;51.448;6.674;2023-05-03T06:54:37;8.95;;;4.18;;
37905;SDS011;23739;51.448;6.674;2023-05-03T06:57:04;14.10;;;5.07;;
37905;SDS011;23739;51.448;6.674;2023-05-03T06:59:31;9.05;;;4.15;;
37905;SDS011;23739;51.448;6.674;2023-05-03T07:01:57;10.20;;;4.78;;
37905;SDS011;23739;51.448;6.674;2023-05-03T07:04:24;9.38;;;4.97;;
37905;SDS011;23739;51.448;6.674;2023-05-03T07:06:50;8.30;;;4.60;;
37905;SDS011;23739;51.448;6.674;2023-05-03T07:09:16;8.57;;;4.38;;
37905;SDS011;23739;51.448;6.674;2023-05-03T07:11:42;9.27;;;4.28;;
37905;SDS011;23739;51.448;6.674;2023-05-03T07:14:13;8.95;;;4.70;;
37905;SDS011;23739;51.448;6.674;2023-05-03T07:16:40;11.27;;;4.90;;
37905;SDS011;23739;51.448;6.674;2023-05-03T07:19:06;14.27;;;5.53;;
37905;SDS011;23739;51.448;6.674;2023-05-03T07:21:32;10.60;;;4.60;;
37905;SDS011;23739;51.448;6.674;2023-05-03T07:23:59;10.13;;;5.32;;
37905;SDS011;23739;51.448;6.674;2023-05-03T07:26:25;8.38;;;4.53;;
37905;SDS011;23739;51.448;6.674;2023-05-03T07:28:52;6.53;;;4.20;;
37905;SDS011;23739;51.448;6.674;2023-05-03T07:31:19;11.40;;;4.28;;
37905;SDS011;23739;51.448;6.674;2023-05-03T07:33:46;8.93;;;3.70;;
37905;SDS011;23739;51.448;6.674;2023-05-03T07:36:12;4.90;;;3.47;;
37905;SDS011;23739;51.448;6.674;2023-05-03T07:38:38;7.78;;;3.47;;
37905;SDS011;23739;51.448;6.674;2023-05-03T07:41:04;8.80;;;3.60;;
37905;SDS011;23739;51.448;6.674;2023-05-03T07:43:31;4.65;;;3.20;;
37905;SDS011;23739;51.448;6.674;2023-05-03T07:45:57;5.50;;;3.00;;
37905;SDS011;23739;51.448;6.674;2023-05-03T07:48:23;7.28;;;4.28;;
37905;SDS011;23739;51.448;6.674;2023-05-03T07:50:50;5.20;;;3.50;;
37905;SDS011;23739;51.448;6.674;2023-05-03T07:53:16;8.77;;;3.97;;
37905;SDS011;23739;51.448;6.674;2023-05-03T07:55:44;5.75;;;3.67;;
37905;SDS011;23739;51.448;6.674;2023-05-03T07:58:10;6.43;;;3.33;;
37905;SDS011;23739;51.448;6.674;2023-05-03T08:00:36;8.48;;;3.40;;
37905;SDS011;23739;51.448;6.674;2023-05-03T08:03:03;4.53;;;2.80;;
37905;SDS011;23739;51.448;6.674;2023-05-03T08:05:30;3.33;;;3.00;;
37905;SDS011;23739;51.448;6.674;2023-05-03T08:07:57;3.95;;;2.60;;
37905;SDS011;23739;51.448;6.674;2023-05-03T08:10:23;5.55;;;2.85;;
37905;SDS011;23739;51.448;6.674;2023-05-03T08:12:49;4.18;;;2.50;;
37905;SDS011;23739;51.448;6.674;2023-05-03T08:15:15;6.20;;;3.35;;
37905;SDS011;23739;51.448;6.674;2023-05-03T08:17:42;9.60;;;2.70;;
37905;SDS011;23739;51.448;6.674;2023-05-03T08:20:08;5.20;;;2.80;;
37905;SDS011;23739;51.448;6.674;2023-05-03T08:22:35;5.05;;;3.20;;
37905;SDS011;23739;51.448;6.674;2023-05-03T08:25:02;5.53;;;2.55;;
37905;SDS011;23739;51.448;6.674;2023-05-03T08:27:32;5.85;;;3.17;;
37905;SDS011;23739;51.448;6.674;2023-05-03T08:29:58;4.97;;;2.45;;
37905;SDS011;23739;51.448;6.674;2023-05-03T08:32:25;8.23;;;2.83;;
37905;SDS011;23739;51.448;6.674;2023-05-03T08:37:18;4.55;;;2.85;;
37905;SDS011;23739;51.448;6.674;2023-05-03T08:39:44;4.80;;;2.47;;
37905;SDS011;23739;51.448;6.674;2023-05-03T08:42:11;4.18;;;2.72;;
37905;SDS011;23739;51.448;6.674;2023-05-03T08:44:42;3.50;;;2.60;;
37905;SDS011;23739;51.448;6.674;2023-05-03T08:47:09;4.03;;;2.97;;
37905;SDS011;23739;51.448;6.674;2023-05-03T08:49:35;6.53;;;2.90;;
37905;SDS011;23739;51.448;6.674;2023-05-03T08:52:02;6.68;;;3.10;;
37905;SDS011;23739;51.448;6.674;2023-05-03T08:54:30;8.02;;;3.50;;
37905;SDS011;23739;51.448;6.674;2023-05-03T08:56:56;5.38;;;3.17;;
37905;SDS011;23739;51.448;6.674;2023-05-03T08:59:23;7.47;;;3.08;;
37905;SDS011;23739;51.448;6.674;2023-05-03T09:01:51;5.80;;;3.33;;
37905;SDS011;23739;51.448;6.674;2023-05-03T09:04:17;3.42;;;2.58;;
37905;SDS011;23739;51.448;6.674;2023-05-03T09:06:43;5.10;;;2.58;;
37905;SDS011;23739;51.448;6.674;2023-05-03T09:09:09;3.00;;;2.45;;
37905;SDS011;23739;51.448;6.674;2023-05-03T09:11:38;7.03;;;3.05;;
37905;SDS011;23739;51.448;6.674;2023-05-03T09:14:15;7.32;;;2.47;;
37905;SDS011;23739;51.448;6.674;2023-05-03T09:16:42;5.15;;;2.38;;
37905;SDS011;23739;51.448;6.674;2023-05-03T09:19:09;6.95;;;3.33;;
37905;SDS011;23739;51.448;6.674;2023-05-03T09:21:35;7.47;;;2.75;;
37905;SDS011;23739;51.448;6.674;2023-05-03T09:24:10;4.68;;;2.60;;
37905;SDS011;23739;51.448;6.674;2023-05-03T09:26:40;8.93;;;4.45;;
37905;SDS011;23739;51.448;6.674;2023-05-03T09:29:07;4.97;;;2.88;;
37905;SDS011;23739;51.448;6.674;2023-05-03T09:31:34;4.22;;;2.88;;
37905;SDS011;23739;51.448;6.674;2023-05-03T09:34:01;7.97;;;3.30;;
37905;SDS011;23739;51.448;6.674;2023-05-03T09:36:34;6.15;;;2.88;;
37905;SDS011;23739;51.448;6.674;2023-05-03T09:39:16;6.72;;;3.10;;
37905;SDS011;23739;51.448;6.674;2023-05-03T09:41:42;3.85;;;2.40;;
37905;SDS011;23739;51.448;6.674;2023-05-03T09:44:08;4.68;;;3.22;;
37905;SDS011;23739;51.448;6.674;2023-05-03T09:46:35;2.85;;;1.77;;
37905;SDS011;23739;51.448;6.674;2023-05-03T09:49:01;4.50;;;3.05;;
37905;SDS011;23739;51.448;6.674;2023-05-03T09:51:28;7.65;;;2.67;;
37905;SDS011;23739;51.448;6.674;2023-05-03T09:53:56;5.32;;;2.67;;
37905;SDS011;23739;51.448;6.674;2023-05-03T09:56:23;3.40;;;2.78;;
37905;SDS011;23739;51.448;6.674;2023-05-03T09:58:53;9.05;;;2.90;;
37905;SDS011;23739;51.448;6.674;2023-05-03T10:01:19;2.90;;;2.17;;
37905;SDS011;23739;51.448;6.674;2023-05-03T10:03:49;5.00;;;3.03;;
37905;SDS011;23739;51.448;6.674;2023-05-03T10:08:52;4.57;;;2.33;;
37905;SDS011;23739;51.448;6.674;2023-05-03T10:11:19;7.50;;;2.85;;
37905;SDS011;23739;51.448;6.674;2023-05-03T10:13:48;5.60;;;2.90;;
37905;SDS011;23739;51.448;6.674;2023-05-03T10:16:16;5.18;;;3.13;;
37905;SDS011;23739;51.448;6.674;2023-05-03T10:18:47;4.65;;;2.88;;
37905;SDS011;23739;51.448;6.674;2023-05-03T10:21:15;5.40;;;3.20;;
37905;SDS011;23739;51.448;6.674;2023-05-03T10:26:43;9.75;;;4.10;;
37905;SDS011;23739;51.448;6.674;2023-05-03T10:31:56;6.22;;;2.95;;
37905;SDS011;23739;51.448;6.674;2023-05-03T10:34:23;7.05;;;3.15;;
37905;SDS011;23739;51.448;6.674;2023-05-03T10:36:50;7.32;;;3.60;;
37905;SDS011;23739;51.448;6.674;2023-05-03T10:39:25;4.40;;;2.63;;
37905;SDS011;23739;51.448;6.674;2023-05-03T10:42:00;4.95;;;2.45;;
37905;SDS011;23739;51.448;6.674;2023-05-03T10:47:08;3.55;;;2.45;;
37905;SDS011;23739;51.448;6.674;2023-05-03T10:49:35;3.10;;;2.63;;
37905;SDS011;23739;51.448;6.674;2023-05-03T10:52:06;6.55;;;3.75;;
37905;SDS011;23739;51.448;6.674;2023-05-03T10:54:51;11.43;;;2.67;;
37905;SDS011;23739;51.448;6.674;2023-05-03T10:57:17;5.72;;;2.38;;
37905;SDS011;23739;51.448;6.674;2023-05-03T10:59:46;6.82;;;2.97;;
37905;SDS011;23739;51.448;6.674;2023-05-03T11:02:16;5.38;;;2.10;;
37905;SDS011;23739;51.448;6.674;2023-05-03T11:04:44;3.63;;;2.22;;
37905;SDS011;23739;51.448;6.674;2023-05-03T11:07:18;7.20;;;2.70;;
37905;SDS011;23739;51.448;6.674;2023-05-03T11:09:46;4.57;;;2.67;;
37905;SDS011;23739;51.448;6.674;2023-05-03T11:12:12;5.97;;;3.05;;
37905;SDS011;23739;51.448;6.674;2023-05-03T11:14:40;8.85;;;3.25;;
37905;SDS011;23739;51.448;6.674;2023-05-03T11:17:09;3.95;;;2.70;;
37905;SDS011;23739;51.448;6.674;2023-05-03T11:19:35;6.93;;;2.53;;
37905;SDS011;23739;51.448;6.674;2023-05-03T11:22:04;5.65;;;2.70;;
37905;SDS011;23739;51.448;6.674;2023-05-03T11:24:33;5.22;;;2.90;;
37905;SDS011;23739;51.448;6.674;2023-05-03T11:27:02;4.07;;;2.65;;
37905;SDS011;23739;51.448;6.674;2023-05-03T11:29:29;4.45;;;3.00;;
37905;SDS011;23739;51.448;6.674;2023-05-03T11:31:56;7.22;;;2.85;;
37905;SDS011;23739;51.448;6.674;2023-05-03T11:34:23;7.38;;;2.97;;
37905;SDS011;23739;51.448;6.674;2023-05-03T11:36:49;7.32;;;3.00;;
37905;SDS011;23739;51.448;6.674;2023-05-03T11:39:18;3.65;;;2.63;;
37905;SDS011;23739;51.448;6.674;2023-05-03T11:41:59;4.25;;;2.50;;
37905;SDS011;23739;51.448;6.674;2023-05-03T11:44:28;8.35;;;4.15;;
37905;SDS011;23739;51.448;6.674;2023-05-03T11:46:55;4.03;;;2.83;;
37905;SDS011;23739;51.448;6.674;2023-05-03T11:49:24;2.97;;;2.30;;
37905;SDS011;23739;51.448;6.674;2023-05-03T11:51:51;6.53;;;2.95;;
37905;SDS011;23739;51.448;6.674;2023-05-03T11:54:17;6.57;;;2.75;;
37905;SDS011;23739;51.448;6.674;2023-05-03T11:56:44;3.35;;;2.47;;
37905;SDS011;23739;51.448;6.674;2023-05-03T11:59:11;6.07;;;2.75;;
37905;SDS011;23739;51.448;6.674;2023-05-03T12:01:37;4.00;;;2.92;;
37905;SDS011;23739;51.448;6.674;2023-05-03T12:04:04;4.38;;;2.15;;
37905;SDS011;23739;51.448;6.674;2023-05-03T12:06:30;5.45;;;2.60;;
37905;SDS011;23739;51.448;6.674;2023-05-03T12:09:00;3.80;;;1.90;;
37905;SDS011;23739;51.448;6.674;2023-05-03T12:11:27;6.35;;;1.88;;
37905;SDS011;23739;51.448;6.674;2023-05-03T12:13:56;6.63;;;3.17;;
37905;SDS011;23739;51.448;6.674;2023-05-03T12:16:23;6.78;;;3.00;;
37905;SDS011;23739;51.448;6.674;2023-05-03T12:18:56;8.10;;;3.03;;
37905;SDS011;23739;51.448;6.674;2023-05-03T12:21:41;6.57;;;3.00;;
37905;SDS011;23739;51.448;6.674;2023-05-03T12:24:07;4.25;;;3.17;;
37905;SDS011;23739;51.448;6.674;2023-05-03T12:26:34;3.13;;;2.38;;
37905;SDS011;23739;51.448;6.674;2023-05-03T12:29:00;4.32;;;2.35;;
37905;SDS011;23739;51.448;6.674;2023-05-03T12:31:26;5.45;;;2.70;;
37905;SDS011;23739;51.448;6.674;2023-05-03T12:33:53;6.25;;;3.10;;
37905;SDS011;23739;51.448;6.674;2023-05-03T12:36:20;3.55;;;2.70;;
37905;SDS011;23739;51.448;6.674;2023-05-03T12:38:46;4.25;;;2.25;;
37905;SDS011;23739;51.448;6.674;2023-05-03T12:41:15;5.53;;;2.85;;
37905;SDS011;23739;51.448;6.674;2023-05-03T12:43:41;6.72;;;2.70;;
37905;SDS011;23739;51.448;6.674;2023-05-03T12:46:09;3.70;;;2.78;;
37905;SDS011;23739;51.448;6.674;2023-05-03T12:48:35;6.13;;;3.20;;
37905;SDS011;23739;51.448;6.674;2023-05-03T12:51:04;6.18;;;2.90;;
37905;SDS011;23739;51.448;6.674;2023-05-03T12:53:31;4.97;;;3.47;;
37905;SDS011;23739;51.448;6.674;2023-05-03T12:55:57;5.45;;;3.47;;
37905;SDS011;23739;51.448;6.674;2023-05-03T12:58:23;4.75;;;3.28;;
37905;SDS011;23739;51.448;6.674;2023-05-03T13:00:50;4.00;;;2.85;;
37905;SDS011;23739;51.448;6.674;2023-05-03T13:03:19;3.95;;;2.85;;
37905;SDS011;23739;51.448;6.674;2023-05-03T13:05:47;3.50;;;3.20;;
37905;SDS011;23739;51.448;6.674;2023-05-03T13:08:16;8.25;;;3.35;;
37905;SDS011;23739;51.448;6.674;2023-05-03T13:10:42;5.43;;;2.92;;
37905;SDS011;23739;51.448;6.674;2023-05-03T13:13:11;4.65;;;2.80;;
37905;SDS011;23739;51.448;6.674;2023-05-03T13:15:38;4.65;;;2.55;;
37905;SDS011;23739;51.448;6.674;2023-05-03T13:18:07;4.63;;;3.17;;
37905;SDS011;23739;51.448;6.674;2023-05-03T13:20:34;4.03;;;3.25;;
37905;SDS011;23739;51.448;6.674;2023-05-03T13:23:01;6.93;;;3.28;;
37905;SDS011;23739;51.448;6.674;2023-05-03T13:25:28;5.32;;;3.22;;
37905;SDS011;23739;51.448;6.674;2023-05-03T13:28:04;5.55;;;3.08;;
37905;SDS011;23739;51.448;6.674;2023-05-03T13:30:30;3.78;;;3.38;;
37905;SDS011;23739;51.448;6.674;2023-05-03T13:32:57;3.67;;;3.10;;
37905;SDS011;23739;51.448;6.674;2023-05-03T13:35:23;4.18;;;2.70;;
37905;SDS011;23739;51.448;6.674;2023-05-03T13:37:49;4.20;;;2.67;;
37905;SDS011;23739;51.448;6.674;2023-05-03T13:40:15;5.30;;;2.88;;
37905;SDS011;23739;51.448;6.674;2023-05-03T13:42:42;4.35;;;2.67;;
37905;SDS011;23739;51.448;6.674;2023-05-03T13:45:08;6.22;;;2.95;;
37905;SDS011;23739;51.448;6.674;2023-05-03T13:47:35;7.45;;;2.42;;
37905;SDS011;23739;51.448;6.674;2023-05-03T13:50:01;4.28;;;2.80;;
37905;SDS011;23739;51.448;6.674;2023-05-03T13:52:27;7.78;;;3.10;;
37905;SDS011;23739;51.448;6.674;2023-05-03T13:54:53;4.00;;;2.83;;
37905;SDS011;23739;51.448;6.674;2023-05-03T13:57:19;4.50;;;2.80;;
37905;SDS011;23739;51.448;6.674;2023-05-03T13:59:47;3.92;;;2.80;;
37905;SDS011;23739;51.448;6.674;2023-05-03T14:02:13;7.88;;;3.30;;
37905;SDS011;23739;51.448;6.674;2023-05-03T14:04:39;4.45;;;2.63;;
37905;SDS011;23739;51.448;6.674;2023-05-03T14:07:06;5.95;;;2.95;;
37905;SDS011;23739;51.448;6.674;2023-05-03T14:09:32;3.47;;;2.78;;
37905;SDS011;23739;51.448;6.674;2023-05-03T14:12:03;5.53;;;2.90;;
37905;SDS011;23739;51.448;6.674;2023-05-03T14:14:30;4.93;;;3.15;;
37905;SDS011;23739;51.448;6.674;2023-05-03T14:16:56;6.95;;;3.22;;
37905;SDS011;23739;51.448;6.674;2023-05-03T14:19:22;6.95;;;2.97;;
37905;SDS011;23739;51.448;6.674;2023-05-03T14:21:48;4.40;;;2.85;;
37905;SDS011;23739;51.448;6.674;2023-05-03T14:24:15;6.78;;;3.55;;
37905;SDS011;23739;51.448;6.674;2023-05-03T14:26:41;5.45;;;3.28;;
37905;SDS011;23739;51.448;6.674;2023-05-03T14:29:08;6.72;;;3.53;;
37905;SDS011;23739;51.448;6.674;2023-05-03T14:31:34;5.13;;;4.55;;
37905;SDS011;23739;51.448;6.674;2023-05-03T14:34:01;5.68;;;3.22;;
37905;SDS011;23739;51.448;6.674;2023-05-03T14:36:27;3.97;;;2.80;;
37905;SDS011;23739;51.448;6.674;2023-05-03T14:38:58;3.60;;;2.92;;
37905;SDS011;23739;51.448;6.674;2023-05-03T14:41:25;5.20;;;3.50;;
37905;SDS011;23739;51.448;6.674;2023-05-03T14:43:51;4.30;;;2.95;;
37905;SDS011;23739;51.448;6.674;2023-05-03T14:46:17;4.28;;;3.75;;
37905;SDS011;23739;51.448;6.674;2023-05-03T14:48:44;4.70;;;2.90;;
37905;SDS011;23739;51.448;6.674;2023-05-03T14:51:10;3.97;;;3.67;;
37905;SDS011;23739;51.448;6.674;2023-05-03T14:53:36;5.65;;;3.80;;
37905;SDS011;23739;51.448;6.674;2023-05-03T14:56:05;6.35;;;3.20;;
37905;SDS011;23739;51.448;6.674;2023-05-03T14:58:35;5.82;;;3.53;;
37905;SDS011;23739;51.448;6.674;2023-05-03T15:01:04;6.32;;;3.28;;
37905;SDS011;23739;51.448;6.674;2023-05-03T15:03:34;5.20;;;3.85;;
37905;SDS011;23739;51.448;6.674;2023-05-03T15:06:00;5.57;;;3.25;;
37905;SDS011;23739;51.448;6.674;2023-05-03T15:08:26;6.80;;;3.78;;
37905;SDS011;23739;51.448;6.674;2023-05-03T15:10:53;4.63;;;3.15;;
37905;SDS011;23739;51.448;6.674;2023-05-03T15:13:19;4.15;;;2.55;;
37905;SDS011;23739;51.448;6.674;2023-05-03T15:15:45;6.38;;;3.78;;
37905;SDS011;23739;51.448;6.674;2023-05-03T15:18:12;3.75;;;3.40;;